createdAt,value
2023-03-22T00:02:27.882Z,15.33
2023-03-22T00:05:31.414Z,14.75
2023-03-22T00:08:35.310Z,17.35
2023-03-22T00:11:38.781Z,17.15
2023-03-22T00:14:42.983Z,17.35
2023-03-22T00:17:46.604Z,15.47
2023-03-22T00:20:51.340Z,16.83
2023-03-22T00:23:54.723Z,16.02
2023-03-22T00:26:58.862Z,14.07
2023-03-22T00:30:02.648Z,17.13
2023-03-22T00:33:06.774Z,18.47
2023-03-22T00:36:12.253Z,14.00
2023-03-22T00:39:16.094Z,20.25
2023-03-22T00:42:19.687Z,17.98
2023-03-22T00:45:25.204Z,19.70
2023-03-22T00:48:28.980Z,21.23
2023-03-22T00:51:32.535Z,18.30
2023-03-22T00:54:36.109Z,19.55
2023-03-22T00:57:39.725Z,27.40
2023-03-22T01:00:45.131Z,26.80
2023-03-22T01:03:51.714Z,17.87
2023-03-22T01:07:03.632Z,21.35
2023-03-22T01:10:07.882Z,19.52
2023-03-22T01:13:12.752Z,19.20
2023-03-22T01:16:16.913Z,18.45
2023-03-22T01:19:21.166Z,17.83
2023-03-22T01:22:24.567Z,20.17
2023-03-22T01:25:28.060Z,18.77
2023-03-22T01:28:31.677Z,22.90
2023-03-22T01:31:35.440Z,19.95
2023-03-22T01:34:38.855Z,19.03
2023-03-22T01:37:42.931Z,19.95
2023-03-22T01:40:47.004Z,20.40
2023-03-22T01:44:08.992Z,21.42
2023-03-22T01:47:12.488Z,20.90
2023-03-22T01:50:18.012Z,21.27
2023-03-22T01:53:25.542Z,19.33
2023-03-22T01:56:34.218Z,22.30
2023-03-22T01:59:40.040Z,21.20
2023-03-22T02:02:52.855Z,20.85
2023-03-22T02:06:03.057Z,19.83
2023-03-22T02:09:11.979Z,21.17
2023-03-22T02:12:40.378Z,24.60
2023-03-22T02:16:14.487Z,22.60
2023-03-22T02:19:48.609Z,21.65
2023-03-22T02:23:29.995Z,22.30
2023-03-22T02:27:06.758Z,19.23
2023-03-22T02:30:35.175Z,21.23
2023-03-22T02:33:49.230Z,22.85
2023-03-22T02:37:08.188Z,19.80
2023-03-22T02:40:22.560Z,21.07
2023-03-22T02:43:54.470Z,20.48
2023-03-22T02:47:24.581Z,22.80
2023-03-22T02:50:35.559Z,16.52
2023-03-22T02:54:11.374Z,18.98
2023-03-22T02:57:26.878Z,20.87
2023-03-22T03:00:33.662Z,21.50
2023-03-22T03:03:39.759Z,23.08
2023-03-22T03:06:46.332Z,19.95
2023-03-22T03:09:50.698Z,20.23
2023-03-22T03:12:54.258Z,19.93
2023-03-22T03:16:01.284Z,20.27
2023-03-22T03:19:21.289Z,19.35
2023-03-22T03:22:29.736Z,18.38
2023-03-22T03:26:07.074Z,18.45
2023-03-22T03:29:41.821Z,20.17
2023-03-22T03:32:52.823Z,21.75
2023-03-22T03:36:01.647Z,23.08
2023-03-22T03:39:10.062Z,21.58
2023-03-22T03:42:16.636Z,20.13
2023-03-22T03:45:22.242Z,23.10
2023-03-22T03:48:31.878Z,24.08
2023-03-22T03:51:51.397Z,23.90
2023-03-22T03:54:55.352Z,24.27
2023-03-22T03:58:04.901Z,22.55
2023-03-22T04:01:08.520Z,20.53
2023-03-22T04:04:15.403Z,23.00
2023-03-22T04:07:31.574Z,23.27
2023-03-22T04:10:34.938Z,23.85
2023-03-22T04:13:38.437Z,22.67
2023-03-22T04:16:47.018Z,26.37
2023-03-22T04:19:56.626Z,26.60
2023-03-22T04:23:00.437Z,24.90
2023-03-22T04:26:05.954Z,19.77
2023-03-22T04:29:32.349Z,23.58
2023-03-22T04:33:11.758Z,21.73
2023-03-22T04:36:54.505Z,23.00
2023-03-22T04:40:17.461Z,28.98
2023-03-22T04:43:47.197Z,25.10
2023-03-22T04:46:52.536Z,24.70
2023-03-22T04:49:57.534Z,24.73
2023-03-22T04:53:01.387Z,20.45
2023-03-22T04:56:13.994Z,20.42
2023-03-22T04:59:20.443Z,19.38
2023-03-22T05:02:25.840Z,19.38
2023-03-22T05:05:30.301Z,20.17
2023-03-22T05:08:35.373Z,20.05
2023-03-22T05:11:40.757Z,21.63
2023-03-22T05:15:01.231Z,18.00
2023-03-22T05:18:10.013Z,20.73
2023-03-22T05:21:17.996Z,17.77
2023-03-22T05:24:22.158Z,22.98
2023-03-22T05:27:31.754Z,17.70
2023-03-22T05:30:58.125Z,21.17
2023-03-22T05:34:17.513Z,17.20
2023-03-22T05:37:21.308Z,16.57
2023-03-22T05:40:31.629Z,18.80
2023-03-22T05:43:35.087Z,17.85
2023-03-22T05:46:39.320Z,18.27
2023-03-22T05:50:01.504Z,18.35
2023-03-22T05:53:07.109Z,16.80
2023-03-22T05:56:25.136Z,17.42
2023-03-22T05:59:36.913Z,19.38
2023-03-22T06:02:43.264Z,18.52
2023-03-22T06:05:50.827Z,17.95
2023-03-22T06:09:07.311Z,16.37
2023-03-22T06:12:19.973Z,18.42
2023-03-22T06:15:27.887Z,22.05
2023-03-22T06:18:47.479Z,16.30
2023-03-22T06:21:54.969Z,38.30
2023-03-22T06:25:04.424Z,31.83
2023-03-22T06:28:15.772Z,24.80
2023-03-22T06:31:26.491Z,21.58
2023-03-22T06:34:34.430Z,18.35
2023-03-22T06:37:38.625Z,20.95
2023-03-22T06:40:42.566Z,19.70
2023-03-22T06:43:46.626Z,18.38
2023-03-22T06:47:05.012Z,21.77
2023-03-22T06:50:23.904Z,22.13
2023-03-22T06:53:41.395Z,17.02
2023-03-22T06:56:52.975Z,16.07
2023-03-22T07:00:00.202Z,22.30
2023-03-22T07:03:03.526Z,16.63
2023-03-22T07:06:15.519Z,16.55
2023-03-22T07:09:25.018Z,16.02
2023-03-22T07:12:31.196Z,16.20
2023-03-22T07:15:39.707Z,15.73
2023-03-22T07:18:51.008Z,15.50
2023-03-22T07:21:54.729Z,16.20
2023-03-22T07:25:00.658Z,14.73
2023-03-22T07:28:07.406Z,15.17
2023-03-22T07:31:12.717Z,16.25
2023-03-22T07:34:36.397Z,13.77
2023-03-22T07:37:43.078Z,15.35
2023-03-22T07:40:56.079Z,17.30
2023-03-22T07:44:17.353Z,13.03
2023-03-22T07:47:43.645Z,12.98
2023-03-22T07:51:10.097Z,16.00
2023-03-22T07:54:22.736Z,13.73
2023-03-22T07:57:35.742Z,11.27
2023-03-22T08:00:40.211Z,13.30
2023-03-22T08:04:07.428Z,12.57
2023-03-22T08:07:30.747Z,14.30
2023-03-22T08:10:36.366Z,8.93
2023-03-22T08:13:41.207Z,10.65
2023-03-22T08:16:47.127Z,7.77
2023-03-22T08:19:51.097Z,10.25
2023-03-22T08:23:00.256Z,9.85
2023-03-22T08:26:03.990Z,10.50
2023-03-22T08:29:11.139Z,9.30
2023-03-22T08:32:16.030Z,7.97
2023-03-22T08:35:21.116Z,10.20
2023-03-22T08:38:27.034Z,10.60
2023-03-22T08:41:30.569Z,13.35
2023-03-22T08:44:34.050Z,10.68
2023-03-22T08:47:38.983Z,10.77
2023-03-22T08:50:44.763Z,9.65
2023-03-22T08:54:00.336Z,13.85
2023-03-22T08:57:27.781Z,10.65
2023-03-22T09:00:51.369Z,9.45
2023-03-22T09:04:19.865Z,9.63
2023-03-22T09:07:24.506Z,9.88
2023-03-22T09:10:41.959Z,12.23
2023-03-22T09:13:49.291Z,11.23
2023-03-22T09:16:53.392Z,13.05
2023-03-22T09:20:11.158Z,12.93
2023-03-22T09:23:17.698Z,9.70
2023-03-22T09:26:22.316Z,11.25
2023-03-22T09:29:27.875Z,9.57
2023-03-22T09:32:32.101Z,7.88
2023-03-22T09:35:42.847Z,7.40
2023-03-22T09:38:50.221Z,8.50
2023-03-22T09:41:57.681Z,7.60
2023-03-22T09:45:04.424Z,6.75
2023-03-22T09:48:24.079Z,7.88
2023-03-22T09:51:43.592Z,8.00
2023-03-22T09:54:48.086Z,8.95
2023-03-22T09:58:03.366Z,5.75
2023-03-22T10:01:21.165Z,7.38
2023-03-22T10:04:31.299Z,7.70
2023-03-22T10:07:41.025Z,6.70
2023-03-22T10:10:47.026Z,8.35
2023-03-22T10:14:15.399Z,10.02
2023-03-22T10:17:23.742Z,6.55
2023-03-22T10:20:46.726Z,9.30
2023-03-22T10:23:50.252Z,7.80
2023-03-22T10:26:54.601Z,7.15
2023-03-22T10:30:22.233Z,6.88
2023-03-22T10:33:43.517Z,7.35
2023-03-22T10:36:49.969Z,8.68
2023-03-22T10:39:57.156Z,6.97
2023-03-22T10:43:37.215Z,8.00
2023-03-22T10:46:48.134Z,8.18
2023-03-22T10:50:03.846Z,8.98
2023-03-22T10:53:28.924Z,6.28
2023-03-22T10:56:39.401Z,7.10
2023-03-22T10:59:53.924Z,6.47
2023-03-22T11:03:01.837Z,7.00
2023-03-22T11:06:14.675Z,7.65
2023-03-22T11:09:20.754Z,7.35
2023-03-22T11:12:24.340Z,8.97
2023-03-22T11:15:36.132Z,7.88
2023-03-22T11:18:42.592Z,7.30
2023-03-22T11:21:46.386Z,7.57
2023-03-22T11:24:51.134Z,7.10
2023-03-22T11:28:11.644Z,6.60
2023-03-22T11:31:20.088Z,6.95
2023-03-22T11:34:27.615Z,7.07
2023-03-22T11:37:31.737Z,7.38
2023-03-22T11:40:37.035Z,7.18
2023-03-22T11:43:48.351Z,7.10
2023-03-22T11:47:00.795Z,6.55
2023-03-22T11:50:09.423Z,8.10
2023-03-22T11:53:19.445Z,6.55
2023-03-22T11:56:28.424Z,6.50
2023-03-22T11:59:46.331Z,6.83
2023-03-22T12:02:55.047Z,7.15
2023-03-22T12:06:01.706Z,10.98
2023-03-22T12:09:14.337Z,7.72
2023-03-22T12:12:31.888Z,7.18
2023-03-22T12:15:40.682Z,7.30
2023-03-22T12:18:54.045Z,6.90
2023-03-22T12:21:59.067Z,9.50
2023-03-22T12:25:03.661Z,8.20
2023-03-22T12:28:13.428Z,6.55
2023-03-22T12:31:25.228Z,6.80
2023-03-22T12:34:38.800Z,6.45
2023-03-22T12:37:44.885Z,7.68
2023-03-22T12:40:49.776Z,6.72
2023-03-22T12:44:00.246Z,7.50
2023-03-22T12:47:17.227Z,6.53
2023-03-22T12:50:31.457Z,7.47
2023-03-22T12:53:43.050Z,6.97
2023-03-22T12:56:53.065Z,7.05
2023-03-22T13:00:08.078Z,6.80
2023-03-22T13:03:17.639Z,8.23
2023-03-22T13:06:45.596Z,9.63
2023-03-22T13:09:51.354Z,10.25
2023-03-22T13:13:13.001Z,7.45
2023-03-22T13:16:22.715Z,81.60
2023-03-22T13:19:30.183Z,67.60
2023-03-22T13:22:41.790Z,26.70
2023-03-22T13:26:01.728Z,9.88
2023-03-22T13:29:21.188Z,9.98
2023-03-22T13:32:33.734Z,8.23
2023-03-22T13:35:49.379Z,10.90
2023-03-22T13:39:07.030Z,17.38
2023-03-22T13:42:21.802Z,7.15
2023-03-22T13:45:33.844Z,8.50
2023-03-22T13:48:44.144Z,9.25
2023-03-22T13:51:48.786Z,12.40
2023-03-22T13:54:55.129Z,8.13
2023-03-22T13:58:00.572Z,6.45
2023-03-22T14:01:07.085Z,6.90
2023-03-22T14:04:13.704Z,9.93
2023-03-22T14:07:40.336Z,9.50
2023-03-22T14:11:14.861Z,7.30
2023-03-22T14:14:24.552Z,6.50
2023-03-22T14:18:03.138Z,8.23
2023-03-22T14:21:12.823Z,6.68
